createdAt,value
2022-11-28T00:01:50.247Z,71.81
2022-11-28T00:04:52.466Z,72.72
2022-11-28T00:07:55.683Z,75.15
2022-11-28T00:10:57.551Z,72.14
2022-11-28T00:13:59.458Z,71.06
2022-11-28T00:17:01.351Z,71.10
2022-11-28T00:20:03.527Z,71.39
2022-11-28T00:23:05.388Z,72.22
2022-11-28T00:26:17.775Z,72.91
2022-11-28T00:29:19.635Z,75.82
2022-11-28T00:32:21.451Z,74.00
2022-11-28T00:35:23.313Z,71.51
2022-11-28T00:38:25.179Z,71.67
2022-11-28T00:41:28.734Z,72.48
2022-11-28T00:44:30.580Z,74.19
2022-11-28T00:47:32.478Z,72.59
2022-11-28T00:50:34.293Z,68.95
2022-11-28T00:53:36.548Z,68.51
2022-11-28T00:56:38.906Z,69.23
2022-11-28T00:59:40.772Z,70.63
2022-11-28T01:02:42.668Z,71.74
2022-11-28T01:05:44.634Z,70.36
2022-11-28T01:08:46.517Z,69.28
2022-11-28T01:11:49.232Z,70.01
2022-11-28T01:14:51.104Z,70.21
2022-11-28T01:17:52.931Z,67.88
2022-11-28T01:20:54.770Z,66.82
2022-11-28T01:23:56.629Z,68.08
2022-11-28T01:26:58.463Z,68.81
2022-11-28T01:30:00.308Z,71.09
2022-11-28T01:33:02.113Z,67.99
2022-11-28T01:36:04.172Z,67.12
2022-11-28T01:39:06.100Z,67.61
2022-11-28T01:42:07.961Z,69.30
2022-11-28T01:45:14.465Z,71.82
2022-11-28T01:48:18.017Z,68.10
2022-11-28T01:51:19.823Z,67.50
2022-11-28T01:54:24.013Z,67.90
2022-11-28T01:57:25.931Z,69.03
2022-11-28T02:00:27.807Z,68.40
2022-11-28T02:03:45.851Z,66.57
2022-11-28T02:06:47.682Z,68.06
2022-11-28T02:09:49.492Z,68.31
2022-11-28T02:13:03.650Z,69.61
2022-11-28T02:16:14.637Z,71.03
2022-11-28T02:19:34.893Z,71.63
2022-11-28T02:22:52.025Z,67.99
2022-11-28T02:26:09.223Z,68.61
2022-11-28T02:29:13.734Z,66.94
2022-11-28T02:32:18.495Z,67.24
2022-11-28T02:35:52.822Z,68.09
2022-11-28T02:38:58.686Z,67.59
2022-11-28T02:42:03.745Z,67.53
2022-11-28T02:45:35.071Z,67.18
2022-11-28T02:48:42.597Z,67.13
2022-11-28T02:51:46.322Z,67.39
2022-11-28T02:54:48.954Z,68.02
2022-11-28T02:57:52.128Z,69.08
2022-11-28T03:00:54.116Z,68.01
2022-11-28T03:04:14.754Z,71.27
2022-11-28T03:07:29.312Z,68.02
2022-11-28T03:10:33.909Z,67.81
2022-11-28T03:13:40.270Z,67.57
2022-11-28T03:16:46.414Z,68.63
2022-11-28T03:19:56.696Z,68.30
2022-11-28T03:23:01.040Z,67.63
2022-11-28T03:26:05.900Z,67.31
2022-11-28T03:29:16.636Z,65.76
2022-11-28T03:32:19.222Z,66.58
2022-11-28T03:35:22.692Z,67.81
2022-11-28T03:38:28.969Z,67.04
2022-11-28T03:41:41.936Z,65.91
2022-11-28T03:44:45.737Z,65.82
2022-11-28T03:47:48.423Z,65.31
2022-11-28T03:51:10.153Z,66.21
2022-11-28T03:54:13.880Z,65.18
2022-11-28T03:57:29.128Z,65.83
2022-11-28T04:00:31.016Z,65.64
2022-11-28T04:03:32.853Z,65.67
2022-11-28T04:06:37.297Z,66.16
2022-11-28T04:09:47.022Z,67.18
2022-11-28T04:13:24.193Z,68.66
2022-11-28T04:16:53.612Z,68.97
2022-11-28T04:19:58.519Z,69.05
2022-11-28T04:23:01.575Z,67.87
2022-11-28T04:26:05.192Z,67.18
2022-11-28T04:29:08.305Z,67.14
2022-11-28T04:32:10.368Z,67.12
2022-11-28T04:35:13.570Z,67.45
2022-11-28T04:38:15.420Z,67.78
2022-11-28T04:41:18.718Z,68.40
2022-11-28T04:44:31.609Z,66.13
2022-11-28T04:47:33.440Z,67.36
2022-11-28T04:50:42.585Z,66.38
2022-11-28T04:54:03.452Z,67.07
2022-11-28T04:57:17.360Z,67.28
2022-11-28T05:00:19.918Z,67.14
2022-11-28T05:03:21.985Z,68.17
2022-11-28T05:06:24.421Z,68.30
2022-11-28T05:09:26.260Z,68.96
2022-11-28T05:12:28.103Z,69.52
2022-11-28T05:15:29.956Z,70.02
2022-11-28T05:18:31.797Z,69.49
2022-11-28T05:21:33.698Z,69.39
2022-11-28T05:24:35.557Z,69.20
2022-11-28T05:27:37.502Z,68.67
2022-11-28T05:30:39.291Z,69.60
2022-11-28T05:33:41.129Z,69.44
2022-11-28T05:36:43.007Z,70.48
2022-11-28T05:39:45.203Z,71.99
2022-11-28T05:42:47.255Z,70.71
2022-11-28T05:45:49.382Z,68.69
2022-11-28T05:48:51.216Z,69.11
2022-11-28T05:51:53.086Z,70.76
2022-11-28T05:54:55.017Z,68.27
2022-11-28T05:57:56.832Z,68.37
2022-11-28T06:00:58.722Z,68.26
2022-11-28T06:04:01.174Z,67.01
2022-11-28T06:07:03.182Z,68.12
2022-11-28T06:10:05.392Z,67.04
2022-11-28T06:13:07.404Z,66.66
2022-11-28T06:16:09.890Z,68.43
2022-11-28T06:19:12.329Z,69.00
2022-11-28T06:22:14.440Z,68.44
2022-11-28T06:25:16.377Z,67.81
2022-11-28T06:28:18.182Z,70.95
2022-11-28T06:31:21.202Z,70.18
2022-11-28T06:34:23.945Z,68.88
2022-11-28T06:37:25.921Z,70.36
2022-11-28T06:40:27.788Z,68.65
2022-11-28T06:43:30.323Z,69.32
2022-11-28T06:46:32.347Z,67.57
2022-11-28T06:49:34.240Z,68.49
2022-11-28T06:52:36.363Z,68.17
2022-11-28T06:55:38.361Z,69.28
2022-11-28T06:58:40.646Z,68.03
2022-11-28T07:01:42.782Z,69.89
2022-11-28T07:04:44.993Z,67.12
2022-11-28T07:07:54.193Z,67.46
2022-11-28T07:10:57.733Z,67.14
2022-11-28T07:14:00.746Z,66.35
2022-11-28T07:17:02.832Z,66.61
2022-11-28T07:20:05.522Z,66.03
2022-11-28T07:23:07.454Z,66.02
2022-11-28T07:26:09.966Z,65.65
2022-11-28T07:29:18.092Z,65.84
2022-11-28T07:32:19.963Z,67.04
2022-11-28T07:35:21.782Z,66.20
2022-11-28T07:38:23.706Z,65.03
2022-11-28T07:41:26.977Z,63.63
2022-11-28T07:44:29.134Z,63.81
2022-11-28T07:47:31.073Z,63.88
2022-11-28T07:50:32.990Z,63.87
2022-11-28T07:53:35.285Z,64.30
2022-11-28T07:57:10.818Z,63.46
2022-11-28T07:59:59.806Z,64.01
2022-11-28T08:03:01.717Z,63.67
2022-11-28T08:06:03.943Z,63.34
2022-11-28T08:09:07.174Z,62.30
2022-11-28T08:12:09.129Z,62.29
2022-11-28T08:15:11.105Z,62.59
2022-11-28T08:18:13.085Z,60.59
2022-11-28T08:21:19.997Z,60.34
2022-11-28T08:24:22.195Z,60.22
2022-11-28T08:27:24.175Z,60.10
2022-11-28T08:30:27.065Z,60.60
2022-11-28T08:33:28.971Z,60.56
2022-11-28T08:36:30.847Z,58.83
2022-11-28T08:39:33.554Z,57.44
2022-11-28T08:42:35.640Z,56.55
2022-11-28T08:45:37.708Z,55.36
2022-11-28T08:48:40.021Z,56.06
2022-11-28T08:51:42.121Z,57.59
2022-11-28T08:54:44.308Z,56.55
2022-11-28T08:57:46.353Z,56.46
2022-11-28T09:00:48.305Z,56.15
2022-11-28T09:03:50.443Z,55.97
2022-11-28T09:06:52.737Z,58.11
2022-11-28T09:09:54.613Z,58.61
2022-11-28T09:12:56.445Z,58.13
2022-11-28T09:16:04.676Z,55.90
2022-11-28T09:19:09.383Z,56.04
2022-11-28T09:22:11.311Z,54.31
2022-11-28T09:25:13.866Z,54.44
2022-11-28T09:28:16.398Z,52.79
2022-11-28T09:31:18.601Z,55.58
2022-11-28T09:34:21.397Z,53.53
2022-11-28T09:37:23.194Z,54.74
2022-11-28T09:40:41.199Z,53.89
2022-11-28T09:43:43.539Z,53.10
2022-11-28T09:46:45.745Z,55.65
2022-11-28T09:49:55.505Z,55.09
2022-11-28T09:52:57.517Z,53.03
2022-11-28T09:56:00.477Z,53.82
2022-11-28T09:59:05.175Z,55.88
2022-11-28T10:02:26.707Z,54.53
2022-11-28T10:05:31.490Z,55.13
2022-11-28T10:08:51.999Z,54.15
2022-11-28T10:12:12.761Z,55.05
2022-11-28T10:15:15.395Z,56.64
2022-11-28T10:18:29.671Z,57.99
2022-11-28T10:21:31.487Z,56.55
2022-11-28T10:24:37.605Z,56.32
2022-11-28T10:27:39.532Z,54.97
2022-11-28T10:30:45.247Z,56.04
2022-11-28T10:33:49.133Z,58.82
2022-11-28T10:36:53.415Z,57.65
2022-11-28T10:39:55.755Z,56.57
2022-11-28T10:42:57.655Z,55.67
2022-11-28T10:45:59.506Z,57.54
2022-11-28T10:49:09.533Z,54.80
2022-11-28T10:52:17.439Z,55.64
2022-11-28T10:55:28.573Z,58.52
2022-11-28T10:58:39.695Z,60.51
2022-11-28T11:01:44.728Z,60.03
2022-11-28T11:04:50.684Z,57.08
2022-11-28T11:07:56.470Z,56.01
2022-11-28T11:10:58.460Z,55.04
2022-11-28T11:14:01.424Z,56.29
2022-11-28T11:17:03.999Z,55.29
2022-11-28T11:20:24.428Z,57.31
2022-11-28T11:23:26.287Z,55.54
2022-11-28T11:26:30.225Z,59.06
2022-11-28T11:29:35.573Z,55.29
2022-11-28T11:32:37.454Z,56.53
2022-11-28T11:35:47.509Z,57.00
2022-11-28T11:38:49.481Z,56.96
2022-11-28T11:41:52.433Z,53.37
2022-11-28T11:44:54.490Z,53.27
2022-11-28T11:47:56.390Z,53.05
2022-11-28T11:50:58.254Z,51.53
2022-11-28T11:54:03.270Z,53.14
2022-11-28T11:57:31.485Z,53.21
2022-11-28T12:00:47.523Z,53.68
2022-11-28T12:03:57.101Z,53.47
2022-11-28T12:06:59.093Z,52.69
2022-11-28T12:10:04.628Z,51.65
2022-11-28T12:13:08.824Z,53.28
2022-11-28T12:16:16.899Z,52.88
2022-11-28T12:19:45.476Z,52.84
2022-11-28T12:22:47.308Z,53.82
2022-11-28T12:25:50.878Z,52.94
2022-11-28T12:28:55.842Z,55.18
2022-11-28T12:32:00.796Z,52.73
2022-11-28T12:35:02.620Z,53.90
2022-11-28T12:38:22.736Z,54.19
2022-11-28T12:41:32.706Z,53.27
2022-11-28T12:44:58.077Z,53.81
2022-11-28T12:48:09.171Z,53.02
2022-11-28T12:51:11.008Z,52.86
2022-11-28T12:54:22.208Z,53.14
2022-11-28T12:57:35.041Z,54.46
2022-11-28T13:00:41.343Z,54.15
2022-11-28T13:04:02.741Z,55.06
2022-11-28T13:07:07.852Z,55.05
2022-11-28T13:10:15.553Z,57.06
2022-11-28T13:13:23.412Z,55.99
2022-11-28T13:16:27.296Z,55.90
2022-11-28T13:19:29.601Z,55.94
2022-11-28T13:22:40.030Z,55.11
2022-11-28T13:25:50.685Z,56.01
2022-11-28T13:28:54.679Z,55.29
2022-11-28T13:32:02.237Z,56.37
2022-11-28T13:35:04.576Z,55.74
2022-11-28T13:42:21.267Z,55.91
2022-11-28T13:45:26.565Z,55.60
2022-11-28T13:49:13.311Z,55.34
2022-11-28T13:52:26.009Z,54.89
2022-11-28T13:55:36.892Z,56.02
2022-11-28T13:58:53.078Z,56.25
2022-11-28T14:01:58.335Z,57.49
2022-11-28T14:05:00.371Z,58.09
2022-11-28T14:08:02.671Z,58.61
2022-11-28T14:11:27.585Z,59.32
2022-11-28T14:14:48.733Z,60.02
2022-11-28T14:17:59.961Z,60.08
2022-11-28T14:21:20.428Z,58.83
2022-11-28T14:24:36.417Z,58.48
2022-11-28T14:27:39.025Z,61.18
2022-11-28T14:30:41.680Z,59.73
2022-11-28T14:33:43.810Z,59.25
2022-11-28T14:36:45.660Z,59.08
2022-11-28T14:39:51.374Z,59.34
2022-11-28T14:43:12.144Z,59.03
2022-11-28T14:46:27.513Z,59.18
2022-11-28T14:49:29.450Z,61.83
2022-11-28T14:52:40.027Z,58.76
2022-11-28T14:55:42.621Z,59.45
2022-11-28T14:58:47.496Z,59.22
2022-11-28T15:01:56.867Z,60.08
2022-11-28T15:05:18.025Z,59.09
2022-11-28T15:08:29.195Z,59.33
2022-11-28T15:11:43.335Z,60.76
2022-11-28T15:14:45.729Z,60.01
2022-11-28T15:17:48.982Z,60.98
2022-11-28T15:20:53.917Z,60.59
2022-11-28T15:23:56.694Z,60.17
2022-11-28T15:27:07.877Z,59.87
2022-11-28T15:30:16.609Z,59.68
2022-11-28T15:33:18.909Z,59.75
2022-11-28T15:36:27.642Z,60.26
2022-11-28T15:39:30.978Z,60.39
2022-11-28T15:42:36.041Z,60.61
2022-11-28T15:45:38.093Z,61.34
2022-11-28T15:48:47.882Z,61.49
2022-11-28T15:51:53.914Z,60.83
2022-11-28T15:54:56.018Z,62.15
2022-11-28T15:58:11.504Z,61.36
2022-11-28T16:01:20.679Z,61.25
2022-11-28T16:04:22.701Z,62.32
2022-11-28T16:07:24.552Z,62.26
2022-11-28T16:10:26.481Z,62.72
2022-11-28T16:13:28.261Z,64.15
2022-11-28T16:16:30.943Z,62.53
2022-11-28T16:19:33.776Z,63.37
2022-11-28T16:22:36.215Z,62.71
2022-11-28T16:25:38.972Z,64.35
2022-11-28T16:28:40.987Z,62.17
2022-11-28T16:31:43.474Z,62.19
2022-11-28T16:34:55.284Z,61.65
2022-11-28T16:38:17.520Z,62.18
2022-11-28T16:41:23.760Z,62.89
2022-11-28T16:44:26.245Z,62.42
2022-11-28T16:47:29.463Z,62.70
2022-11-28T16:50:31.312Z,62.62
2022-11-28T16:53:57.452Z,63.05
2022-11-28T16:57:14.670Z,63.00
2022-11-28T17:00:16.701Z,64.70
2022-11-28T17:03:39.800Z,63.80
2022-11-28T17:06:42.558Z,64.49
2022-11-28T17:09:45.614Z,63.00
2022-11-28T17:12:47.813Z,63.74
2022-11-28T17:15:49.648Z,66.09
2022-11-28T17:18:51.534Z,64.37
2022-11-28T17:21:54.168Z,66.09
2022-11-28T17:24:58.592Z,65.20
2022-11-28T17:28:00.403Z,64.37
2022-11-28T17:31:02.366Z,64.55
2022-11-28T17:34:04.216Z,63.99
2022-11-28T17:37:06.071Z,63.70
2022-11-28T17:40:26.719Z,65.22
2022-11-28T17:43:28.580Z,65.55
2022-11-28T17:46:30.447Z,66.81
2022-11-28T17:49:32.290Z,68.14
2022-11-28T17:52:34.113Z,65.91
2022-11-28T17:55:36.662Z,63.99
2022-11-28T17:58:38.567Z,64.39
2022-11-28T18:01:40.591Z,63.56
2022-11-28T18:04:42.441Z,65.26
2022-11-28T18:07:44.373Z,66.32
2022-11-28T18:10:46.402Z,67.56
2022-11-28T18:13:48.332Z,66.92
2022-11-28T18:16:50.168Z,66.53
2022-11-28T18:19:57.153Z,64.71
2022-11-28T18:22:59.745Z,64.38
2022-11-28T18:26:05.183Z,66.02
2022-11-28T18:29:10.116Z,67.23
2022-11-28T18:32:12.032Z,65.45
2022-11-28T18:35:13.833Z,65.82
2022-11-28T18:38:15.692Z,67.61
2022-11-28T18:41:17.650Z,65.96
2022-11-28T18:44:19.520Z,70.29
2022-11-28T18:47:21.365Z,70.03
2022-11-28T18:50:23.224Z,69.01
2022-11-28T18:53:25.056Z,68.84
2022-11-28T18:56:27.153Z,67.32
2022-11-28T18:59:29.057Z,67.74
2022-11-28T19:02:31.064Z,67.43
2022-11-28T19:05:38.933Z,68.41
2022-11-28T19:08:41.543Z,67.81
2022-11-28T19:11:43.756Z,68.37
2022-11-28T19:14:45.996Z,70.09
2022-11-28T19:17:47.882Z,70.59
2022-11-28T19:20:49.716Z,69.86
2022-11-28T19:23:51.684Z,68.41
2022-11-28T19:26:53.566Z,71.70
2022-11-28T19:29:55.556Z,69.99
2022-11-28T19:32:58.081Z,71.88
2022-11-28T19:36:06.374Z,70.51
2022-11-28T19:39:09.002Z,71.39
2022-11-28T19:42:11.088Z,69.91
2022-11-28T19:45:12.935Z,69.47
2022-11-28T19:48:14.864Z,66.43
2022-11-28T19:51:16.984Z,65.54
2022-11-28T19:54:22.024Z,65.24
2022-11-28T19:57:26.269Z,67.47
2022-11-28T20:00:28.110Z,67.49
2022-11-28T20:03:29.911Z,67.68
2022-11-28T20:06:32.299Z,66.42
2022-11-28T20:09:34.152Z,66.85
2022-11-28T20:12:36.006Z,68.76
2022-11-28T20:15:37.880Z,70.04
2022-11-28T20:18:40.490Z,67.76
2022-11-28T20:21:42.407Z,67.59
2022-11-28T20:24:44.199Z,68.02
2022-11-28T20:27:46.199Z,70.22
2022-11-28T20:30:48.068Z,67.84
2022-11-28T20:33:50.201Z,67.62
2022-11-28T20:36:52.250Z,68.57
2022-11-28T20:39:54.281Z,67.24
2022-11-28T20:42:56.139Z,67.52
2022-11-28T20:46:04.573Z,68.71
2022-11-28T20:49:06.564Z,67.80
2022-11-28T20:52:08.394Z,67.54
2022-11-28T20:55:10.398Z,67.04
2022-11-28T20:58:12.185Z,67.89
2022-11-28T21:01:21.152Z,67.83
2022-11-28T21:04:23.074Z,69.31
2022-11-28T21:07:26.714Z,70.11
2022-11-28T21:10:28.660Z,69.79
2022-11-28T21:13:31.392Z,68.91
2022-11-28T21:16:33.652Z,73.05
2022-11-28T21:19:35.559Z,72.02
2022-11-28T21:22:37.400Z,72.45
2022-11-28T21:25:39.449Z,70.42
2022-11-28T21:28:41.789Z,71.83
2022-11-28T21:31:43.997Z,71.15
2022-11-28T21:34:45.956Z,71.06
2022-11-28T21:37:47.777Z,71.24
2022-11-28T21:40:53.128Z,72.52
2022-11-28T21:43:55.247Z,72.66
2022-11-28T21:46:57.158Z,73.95
2022-11-28T21:49:58.968Z,71.81
2022-11-28T21:53:00.783Z,71.53
2022-11-28T21:56:02.988Z,72.83
2022-11-28T21:59:04.897Z,72.65
2022-11-28T22:05:29.793Z,69.54
2022-11-28T22:08:31.766Z,69.84
2022-11-28T22:11:33.579Z,66.02
2022-11-28T22:14:36.917Z,69.25
2022-11-28T22:17:39.100Z,70.37
2022-11-28T22:20:43.588Z,71.00
2022-11-28T22:23:46.826Z,67.95
2022-11-28T22:26:48.661Z,66.27
2022-11-28T22:29:50.631Z,69.94
2022-11-28T22:32:52.473Z,73.10
2022-11-28T22:35:54.280Z,74.83
2022-11-28T22:38:56.780Z,73.67
2022-11-28T22:41:58.612Z,69.73
2022-11-28T22:45:00.459Z,68.38
2022-11-28T22:48:02.276Z,71.20
2022-11-28T22:51:08.239Z,72.22
2022-11-28T22:54:11.617Z,70.76
2022-11-28T22:57:13.462Z,70.86
2022-11-28T23:00:15.563Z,72.56
2022-11-28T23:03:17.419Z,70.23
2022-11-28T23:06:20.989Z,70.00
2022-11-28T23:09:22.929Z,70.98
2022-11-28T23:12:25.030Z,70.04
2022-11-28T23:15:26.978Z,70.34
2022-11-28T23:18:28.784Z,67.56
2022-11-28T23:21:32.213Z,66.95
2022-11-28T23:24:34.081Z,67.00
2022-11-28T23:27:35.996Z,66.47
2022-11-28T23:30:37.860Z,66.82
2022-11-28T23:33:40.039Z,69.37
2022-11-28T23:36:43.122Z,74.08
2022-11-28T23:39:45.068Z,72.88
2022-11-28T23:42:46.890Z,70.89
2022-11-28T23:45:48.772Z,72.36
2022-11-28T23:48:50.736Z,71.87
2022-11-28T23:51:52.568Z,71.50
2022-11-28T23:54:54.384Z,69.98
2022-11-28T23:57:56.215Z,67.78
